Current Weather

Grinnell Rgnl

Grinnell, Iowa (KGGI)

Report from: Wednesday, August 17, 2022 7:35 PM CDT
Current time: Wednesday, August 17, 2022 8:06 PM CDT

Nearby weather
Weather history
Weather forecast

Temperature24.8°C (76.6°F)
Dew point15.8°C (60.4°F)
Winds 3 kts (1.5 m/s, 3.5 mph) Northeast (50°)
Visibility10 mi. (16.1 km)
Clouds Sky clear
Altimeter30.11 in.Hg (1020 mB)
Relative humidity57 %
Density altitude1,169 ft. (356 m)
Remarks Fully automated report
Automated weather observing station with precipitation discriminator
Flight conditions Visual Meteorological Conditions
Raw dataKGGI 180035Z AUTO 05003KT 10SM CLR 25/16 A3011 RMK AO2 T02480158
An error has occurred. This application may no longer respond until reloaded. Reload 🗙